createdAt,value
2023-01-19T00:01:44.568Z,1.17
2023-01-19T00:04:12.974Z,1.17
2023-01-19T00:06:41.291Z,1.20
2023-01-19T00:09:09.663Z,1.22
2023-01-19T00:11:38.399Z,1.27
2023-01-19T00:14:06.749Z,1.32
2023-01-19T00:16:35.163Z,1.38
2023-01-19T00:19:03.790Z,1.43
2023-01-19T00:21:32.165Z,1.49
2023-01-19T00:24:00.817Z,1.52
2023-01-19T00:26:29.127Z,1.55
2023-01-19T00:28:57.664Z,1.59
2023-01-19T00:31:26.049Z,1.62
2023-01-19T00:33:54.341Z,1.66
2023-01-19T00:36:22.655Z,1.69
2023-01-19T00:38:51.001Z,1.72
2023-01-19T00:41:19.488Z,1.75
2023-01-19T00:43:47.800Z,1.78
2023-01-19T00:46:16.067Z,1.82
2023-01-19T00:48:44.937Z,1.85
2023-01-19T00:51:13.233Z,1.88
2023-01-19T00:53:41.584Z,1.92
2023-01-19T00:56:09.907Z,1.97
2023-01-19T00:58:38.414Z,2.01
2023-01-19T01:01:06.790Z,2.05
2023-01-19T01:03:35.148Z,2.08
2023-01-19T01:06:03.914Z,2.11
2023-01-19T01:08:32.624Z,2.14
2023-01-19T01:11:01.297Z,2.18
2023-01-19T01:13:29.984Z,2.21
2023-01-19T01:15:58.587Z,2.24
2023-01-19T01:18:27.046Z,2.27
2023-01-19T01:21:03.301Z,2.29
2023-01-19T01:23:32.525Z,2.31
2023-01-19T01:26:01.113Z,2.32
2023-01-19T01:28:29.438Z,2.31
2023-01-19T01:30:57.853Z,2.30
2023-01-19T01:33:41.092Z,2.31
2023-01-19T01:36:12.089Z,2.30
2023-01-19T01:38:41.715Z,2.31
2023-01-19T01:41:10.959Z,2.33
2023-01-19T01:43:58.436Z,2.36
2023-01-19T01:46:29.958Z,2.37
2023-01-19T01:49:15.678Z,2.39
2023-01-19T01:51:50.916Z,2.40
2023-01-19T01:54:30.092Z,2.43
2023-01-19T01:57:05.409Z,2.44
2023-01-19T01:59:41.312Z,2.45
2023-01-19T02:02:44.008Z,2.45
2023-01-19T02:05:30.072Z,2.41
2023-01-19T02:08:27.199Z,2.37
2023-01-19T02:11:15.265Z,2.32
2023-01-19T02:13:45.104Z,2.28
2023-01-19T02:16:16.390Z,2.26
2023-01-19T02:18:45.394Z,2.24
2023-01-19T02:21:31.532Z,2.21
2023-01-19T02:24:01.617Z,2.17
2023-01-19T02:26:38.900Z,2.13
2023-01-19T02:29:13.129Z,2.09
2023-01-19T02:31:42.031Z,2.05
2023-01-19T02:34:15.391Z,2.01
2023-01-19T02:37:00.170Z,1.96
2023-01-19T02:39:36.838Z,1.92
2023-01-19T02:42:29.557Z,1.89
2023-01-19T02:44:58.263Z,1.85
2023-01-19T02:47:26.708Z,1.84
2023-01-19T02:49:58.067Z,1.82
2023-01-19T02:52:28.008Z,1.79
2023-01-19T02:55:19.815Z,1.76
2023-01-19T02:58:20.985Z,1.72
2023-01-19T03:01:08.588Z,1.68
2023-01-19T03:03:54.581Z,1.63
2023-01-19T03:07:01.368Z,1.58
2023-01-19T03:09:43.591Z,1.51
2023-01-19T03:12:19.972Z,1.47
2023-01-19T03:14:50.021Z,1.43
2023-01-19T03:17:19.191Z,1.40
2023-01-19T03:19:50.609Z,1.40
2023-01-19T03:22:27.139Z,1.39
2023-01-19T03:25:00.490Z,1.39
2023-01-19T03:27:33.946Z,1.40
2023-01-19T03:30:15.427Z,1.40
2023-01-19T03:32:52.067Z,1.41
2023-01-19T03:35:24.112Z,1.42
2023-01-19T03:37:58.151Z,1.43
2023-01-19T03:40:30.631Z,1.43
2023-01-19T03:43:02.494Z,1.44
2023-01-19T03:45:33.972Z,1.45
2023-01-19T03:48:03.060Z,1.46
2023-01-19T03:50:31.993Z,1.46
2023-01-19T03:53:13.423Z,1.47
2023-01-19T03:55:46.565Z,1.48
2023-01-19T03:58:14.827Z,1.49
2023-01-19T04:00:43.319Z,1.49
2023-01-19T04:03:15.707Z,1.50
2023-01-19T04:05:44.815Z,1.51
2023-01-19T04:08:13.238Z,1.52
2023-01-19T04:10:41.590Z,1.52
2023-01-19T04:13:09.941Z,1.52
2023-01-19T04:15:38.841Z,1.53
2023-01-19T04:18:07.213Z,1.53
2023-01-19T04:20:35.557Z,1.52
2023-01-19T04:23:04.253Z,1.51
2023-01-19T04:25:33.280Z,1.51
2023-01-19T04:28:01.594Z,1.51
2023-01-19T04:30:29.941Z,1.51
2023-01-19T04:32:59.819Z,1.52
2023-01-19T04:35:28.741Z,1.52
2023-01-19T04:37:57.110Z,1.53
2023-01-19T04:40:25.539Z,1.55
2023-01-19T04:42:54.403Z,1.56
2023-01-19T04:45:22.862Z,1.57
2023-01-19T04:47:51.986Z,1.57
2023-01-19T04:50:20.455Z,1.58
2023-01-19T04:52:49.064Z,1.61
2023-01-19T04:55:18.463Z,1.62
2023-01-19T04:57:46.807Z,1.64
2023-01-19T05:00:16.233Z,1.66
2023-01-19T05:02:45.391Z,1.69
2023-01-19T05:05:14.134Z,1.69
2023-01-19T05:07:43.582Z,1.72
2023-01-19T05:10:12.532Z,1.73
2023-01-19T05:12:42.213Z,1.74
2023-01-19T05:15:11.233Z,1.74
2023-01-19T05:17:40.091Z,1.72
2023-01-19T05:20:15.931Z,1.70
2023-01-19T05:22:52.845Z,1.68
2023-01-19T05:25:21.187Z,1.66
2023-01-19T05:27:49.511Z,1.64
2023-01-19T05:30:18.224Z,1.61
2023-01-19T05:32:46.754Z,1.59
2023-01-19T05:35:18.218Z,1.58
2023-01-19T05:37:47.174Z,1.57
2023-01-19T05:40:15.902Z,1.56
2023-01-19T05:42:44.256Z,1.57
2023-01-19T05:45:12.890Z,1.56
2023-01-19T05:47:41.320Z,1.56
2023-01-19T05:50:10.486Z,1.57
2023-01-19T05:52:38.831Z,1.57
2023-01-19T05:55:07.930Z,1.58
2023-01-19T05:57:36.258Z,1.58
2023-01-19T06:00:05.863Z,1.58
2023-01-19T06:02:34.178Z,1.60
2023-01-19T06:05:02.605Z,1.60
2023-01-19T06:07:31.820Z,1.62
2023-01-19T06:10:00.256Z,1.62
2023-01-19T06:12:28.599Z,1.64
2023-01-19T06:14:56.895Z,1.64
2023-01-19T06:17:25.215Z,1.65
2023-01-19T06:19:53.504Z,1.66
2023-01-19T06:22:21.839Z,1.66
2023-01-19T06:24:50.481Z,1.67
2023-01-19T06:27:18.869Z,1.67
2023-01-19T06:29:47.279Z,1.66
2023-01-19T06:32:15.724Z,1.65
2023-01-19T06:34:44.111Z,1.65
2023-01-19T06:37:12.559Z,1.65
2023-01-19T06:39:41.160Z,1.65
2023-01-19T06:42:09.482Z,1.63
2023-01-19T06:44:37.806Z,1.63
2023-01-19T06:47:14.963Z,1.64
2023-01-19T06:49:44.500Z,1.65
2023-01-19T06:52:17.503Z,1.65
2023-01-19T06:54:46.494Z,1.65
2023-01-19T06:57:15.300Z,1.64
2023-01-19T06:59:43.679Z,1.65
2023-01-19T07:02:26.639Z,1.65
2023-01-19T07:04:56.980Z,1.65
2023-01-19T07:07:25.978Z,1.66
2023-01-19T07:09:54.410Z,1.66
2023-01-19T07:12:23.386Z,1.65
2023-01-19T07:14:52.759Z,1.65
2023-01-19T07:17:21.116Z,1.64
2023-01-19T07:19:49.574Z,1.64
2023-01-19T07:22:18.467Z,1.62
2023-01-19T07:24:47.423Z,1.60
2023-01-19T07:27:16.463Z,1.58
2023-01-19T07:29:44.862Z,1.55
2023-01-19T07:32:13.316Z,1.53
2023-01-19T07:34:41.610Z,1.52
2023-01-19T07:37:10.020Z,1.51
2023-01-19T07:39:38.309Z,1.51
2023-01-19T07:42:07.101Z,1.50
2023-01-19T07:44:35.575Z,1.49
2023-01-19T07:47:07.532Z,1.50
2023-01-19T07:49:36.454Z,1.50
2023-01-19T07:52:05.094Z,1.53
2023-01-19T07:54:33.695Z,1.55
2023-01-19T07:57:02.054Z,1.57
2023-01-19T07:59:32.228Z,1.58
2023-01-19T08:02:00.811Z,1.59
2023-01-19T08:04:29.276Z,1.60
2023-01-19T08:06:58.189Z,1.61
2023-01-19T08:09:26.594Z,1.62
2023-01-19T08:11:54.972Z,1.63
2023-01-19T08:14:23.389Z,1.66
2023-01-19T08:16:51.749Z,1.67
2023-01-19T08:19:20.344Z,1.69
2023-01-19T08:21:48.809Z,1.69
2023-01-19T08:24:21.541Z,1.70
2023-01-19T08:26:50.283Z,1.70
2023-01-19T08:29:18.821Z,1.70
2023-01-19T08:31:47.524Z,1.69
2023-01-19T08:34:16.273Z,1.71
2023-01-19T08:36:44.637Z,1.72
2023-01-19T08:39:13.272Z,1.72
2023-01-19T08:41:41.688Z,1.73
2023-01-19T08:44:10.657Z,1.74
2023-01-19T08:46:39.062Z,1.76
2023-01-19T08:49:07.940Z,1.77
2023-01-19T08:51:36.481Z,1.77
2023-01-19T08:54:05.293Z,1.80
2023-01-19T08:56:33.597Z,1.83
2023-01-19T08:59:09.943Z,1.86
2023-01-19T09:01:39.271Z,1.87
2023-01-19T09:04:08.423Z,1.86
2023-01-19T09:06:36.891Z,1.87
2023-01-19T09:09:05.357Z,1.89
2023-01-19T09:11:34.982Z,1.90
2023-01-19T09:14:04.248Z,1.89
2023-01-19T09:16:32.653Z,1.90
2023-01-19T09:19:01.018Z,1.90
2023-01-19T09:21:29.402Z,1.90
2023-01-19T09:23:57.972Z,1.91
2023-01-19T09:26:27.080Z,1.93
2023-01-19T09:28:55.430Z,1.94
2023-01-19T09:31:24.274Z,1.97
2023-01-19T09:33:52.860Z,2.00
2023-01-19T09:36:21.177Z,2.02
2023-01-19T09:38:49.618Z,2.02
2023-01-19T09:41:22.183Z,2.02
2023-01-19T09:43:58.052Z,2.03
2023-01-19T09:46:42.340Z,2.07
2023-01-19T09:49:26.616Z,2.12
2023-01-19T09:51:55.117Z,2.19
2023-01-19T09:54:41.076Z,2.24
2023-01-19T09:57:14.736Z,2.40
2023-01-19T09:59:47.743Z,2.57
2023-01-19T10:02:44.537Z,2.76
2023-01-19T10:05:33.439Z,2.97
2023-01-19T10:08:31.871Z,3.12
2023-01-19T10:11:00.483Z,3.24
2023-01-19T10:13:49.087Z,3.37
2023-01-19T10:16:52.766Z,3.50
2023-01-19T10:19:27.773Z,3.60
2023-01-19T10:22:00.403Z,3.71
2023-01-19T10:24:44.079Z,3.85
2023-01-19T10:27:18.948Z,3.98
2023-01-19T10:29:47.380Z,4.14
2023-01-19T10:32:26.218Z,4.23
2023-01-19T10:34:55.701Z,4.34
2023-01-19T10:37:38.024Z,4.47
2023-01-19T10:40:09.301Z,4.63
2023-01-19T10:42:42.041Z,4.79
2023-01-19T10:45:30.328Z,4.91
2023-01-19T10:48:07.483Z,5.05
2023-01-19T10:50:39.895Z,5.11
2023-01-19T10:53:21.841Z,5.18
2023-01-19T10:56:22.493Z,5.27
2023-01-19T10:58:51.618Z,5.31
2023-01-19T11:01:27.044Z,5.37
2023-01-19T11:04:00.086Z,5.48
2023-01-19T11:06:31.230Z,5.62
2023-01-19T11:09:28.757Z,5.79
2023-01-19T11:11:57.040Z,5.93
2023-01-19T11:14:26.496Z,6.03
2023-01-19T11:16:58.082Z,6.14
2023-01-19T11:19:30.344Z,6.19
2023-01-19T11:22:22.772Z,6.21
2023-01-19T11:24:51.293Z,6.24
2023-01-19T11:27:21.433Z,6.29
2023-01-19T11:30:00.808Z,6.33
2023-01-19T11:32:29.203Z,6.36
2023-01-19T11:34:58.182Z,6.41
2023-01-19T11:37:31.536Z,6.49
2023-01-19T11:40:02.935Z,6.54
2023-01-19T11:42:34.415Z,6.57
2023-01-19T11:45:17.651Z,6.54
2023-01-19T11:47:49.760Z,6.48
2023-01-19T11:50:43.798Z,6.44
2023-01-19T11:53:25.454Z,6.36
2023-01-19T11:55:58.871Z,6.30
2023-01-19T11:58:27.862Z,6.21
2023-01-19T12:01:06.652Z,6.12
2023-01-19T12:03:49.250Z,6.01
2023-01-19T12:06:24.467Z,5.92
2023-01-19T12:09:12.914Z,5.82
2023-01-19T12:11:48.342Z,5.77
2023-01-19T12:14:22.658Z,5.76
2023-01-19T12:16:55.586Z,5.72
2023-01-19T12:19:35.835Z,5.69
2023-01-19T12:22:05.147Z,5.65
2023-01-19T12:24:44.645Z,5.61
2023-01-19T12:27:37.723Z,5.54
2023-01-19T12:30:18.732Z,5.47
2023-01-19T12:32:47.720Z,5.41
2023-01-19T12:35:57.760Z,5.37
2023-01-19T12:38:44.256Z,5.24
2023-01-19T12:41:40.535Z,5.18
2023-01-19T12:44:16.165Z,5.16
2023-01-19T12:47:05.285Z,5.08
2023-01-19T12:49:45.960Z,5.01
2023-01-19T12:52:31.440Z,4.98
2023-01-19T12:55:15.563Z,4.92
2023-01-19T12:58:00.733Z,4.87
2023-01-19T13:00:51.310Z,4.79
2023-01-19T13:03:19.672Z,4.73
2023-01-19T13:05:54.032Z,4.72
2023-01-19T13:08:59.843Z,4.70
2023-01-19T13:11:33.344Z,4.64
2023-01-19T13:14:02.642Z,4.61
2023-01-19T13:16:30.994Z,4.56
2023-01-19T13:19:17.980Z,4.51
2023-01-19T13:21:49.517Z,4.49
2023-01-19T13:24:24.653Z,4.48
2023-01-19T13:26:57.823Z,4.47
2023-01-19T13:29:34.073Z,4.47
2023-01-19T13:32:12.745Z,4.47
2023-01-19T13:34:46.921Z,4.47
2023-01-19T13:37:19.935Z,4.49
2023-01-19T13:39:52.832Z,4.51
2023-01-19T13:42:36.551Z,4.51
2023-01-19T13:45:29.805Z,4.51
2023-01-19T13:48:01.473Z,4.52
2023-01-19T13:50:33.992Z,4.55
2023-01-19T13:53:04.625Z,4.59
2023-01-19T13:55:33.051Z,4.65
2023-01-19T13:58:01.553Z,4.70
2023-01-19T14:00:31.029Z,4.71
2023-01-19T14:03:05.389Z,4.74
2023-01-19T14:05:37.085Z,4.74
2023-01-19T14:08:09.222Z,4.74
2023-01-19T14:11:05.205Z,4.78
2023-01-19T14:13:41.592Z,4.85
2023-01-19T14:16:17.347Z,4.91
2023-01-19T14:18:45.743Z,4.98
2023-01-19T14:21:15.998Z,5.04
2023-01-19T14:24:07.929Z,5.10
2023-01-19T14:26:52.036Z,5.12
2023-01-19T14:29:35.669Z,5.08
2023-01-19T14:32:09.798Z,5.05
2023-01-19T14:34:53.778Z,5.00
2023-01-19T14:37:35.085Z,4.92
2023-01-19T14:40:13.090Z,4.85
2023-01-19T14:43:06.285Z,4.77
2023-01-19T14:45:40.127Z,4.65
2023-01-19T14:48:21.746Z,4.55
2023-01-19T14:51:02.822Z,4.48
2023-01-19T14:53:37.247Z,4.39
2023-01-19T14:56:07.255Z,4.30
2023-01-19T14:58:36.086Z,4.23
2023-01-19T15:01:04.778Z,4.15
2023-01-19T15:03:48.746Z,4.05
2023-01-19T15:06:20.652Z,3.93
2023-01-19T15:08:50.454Z,3.81
2023-01-19T15:11:26.475Z,3.70
2023-01-19T15:13:55.557Z,3.59
2023-01-19T15:16:26.047Z,3.49
2023-01-19T15:18:55.264Z,3.40
2023-01-19T15:21:26.359Z,3.29
2023-01-19T15:23:55.800Z,3.19
2023-01-19T15:26:26.502Z,3.10
2023-01-19T15:28:56.529Z,2.99
2023-01-19T15:31:26.351Z,2.89
2023-01-19T15:33:54.952Z,2.79
2023-01-19T15:36:24.405Z,2.69
2023-01-19T15:41:30.150Z,2.53
2023-01-19T15:43:59.079Z,2.42
2023-01-19T15:46:27.518Z,2.31
2023-01-19T15:48:56.014Z,2.24
2023-01-19T15:51:26.310Z,2.14
2023-01-19T15:53:55.776Z,2.05
2023-01-19T15:56:31.068Z,1.96
2023-01-19T15:58:59.885Z,1.87
2023-01-19T16:01:33.943Z,1.79
2023-01-19T16:04:07.185Z,1.69
2023-01-19T16:06:35.664Z,1.60
2023-01-19T16:09:04.647Z,1.53
2023-01-19T16:11:35.533Z,1.45
2023-01-19T16:14:03.951Z,1.38
2023-01-19T16:16:33.051Z,1.30
2023-01-19T16:19:01.698Z,1.23
2023-01-19T16:21:30.032Z,1.17
2023-01-19T16:23:58.422Z,1.11
2023-01-19T16:26:35.192Z,1.05
2023-01-19T16:29:10.899Z,1.02
2023-01-19T16:31:42.452Z,0.98
2023-01-19T16:34:11.225Z,0.97
2023-01-19T16:36:41.647Z,0.94
2023-01-19T16:39:15.055Z,0.92
2023-01-19T16:41:46.496Z,0.89
2023-01-19T16:44:17.014Z,0.87
2023-01-19T16:46:46.969Z,0.84
2023-01-19T16:49:21.421Z,0.82
2023-01-19T16:51:50.801Z,0.78
2023-01-19T16:54:27.395Z,0.75
2023-01-19T16:56:57.307Z,0.70
2023-01-19T16:59:27.123Z,0.64
2023-01-19T17:01:56.103Z,0.58
2023-01-19T17:04:24.633Z,0.54
2023-01-19T17:06:54.895Z,0.49
2023-01-19T17:09:23.561Z,0.46
2023-01-19T17:11:51.863Z,0.42
2023-01-19T17:14:20.865Z,0.41
2023-01-19T17:16:49.473Z,0.38
2023-01-19T17:19:20.096Z,0.36
2023-01-19T17:21:49.353Z,0.34
2023-01-19T17:24:18.001Z,0.32
2023-01-19T17:26:48.633Z,0.32
2023-01-19T17:29:17.983Z,0.31
2023-01-19T17:31:46.837Z,0.29
2023-01-19T17:34:15.230Z,0.28
2023-01-19T17:36:43.721Z,0.27
2023-01-19T17:39:14.885Z,0.25
2023-01-19T17:41:43.553Z,0.24
2023-01-19T17:44:12.178Z,0.23
2023-01-19T17:46:40.779Z,0.21
2023-01-19T17:49:09.189Z,0.18
2023-01-19T17:51:37.595Z,0.12
2023-01-19T17:54:06.147Z,0.07
2023-01-19T17:56:37.602Z,0.03
2023-01-19T17:59:07.958Z,0.00
2023-01-19T18:01:40.869Z,-0.03
2023-01-19T18:04:09.599Z,-0.07
2023-01-19T18:06:38.452Z,-0.11
2023-01-19T18:09:07.630Z,-0.17
2023-01-19T18:11:36.387Z,-0.23
2023-01-19T18:14:06.028Z,-0.28
2023-01-19T18:16:34.583Z,-0.32
2023-01-19T18:19:03.261Z,-0.37
2023-01-19T18:21:31.756Z,-0.41
2023-01-19T18:24:03.849Z,-0.45
2023-01-19T18:26:35.212Z,-0.50
2023-01-19T18:29:05.005Z,-0.54
2023-01-19T18:31:33.664Z,-0.58
2023-01-19T18:34:02.076Z,-0.62
2023-01-19T18:36:32.612Z,-0.68
2023-01-19T18:39:01.637Z,-0.73
2023-01-19T18:41:30.629Z,-0.79
2023-01-19T18:43:59.744Z,-0.83
2023-01-19T18:46:28.440Z,-0.87
2023-01-19T18:48:56.886Z,-0.93
2023-01-19T18:51:25.475Z,-1.00
2023-01-19T18:53:54.088Z,-1.07
2023-01-19T18:56:23.590Z,-1.13
2023-01-19T18:58:54.782Z,-1.16
2023-01-19T19:01:32.415Z,-1.20
2023-01-19T19:04:08.703Z,-1.27
2023-01-19T19:06:37.109Z,-1.31
2023-01-19T19:09:06.616Z,-1.35
2023-01-19T19:11:35.711Z,-1.36
2023-01-19T19:14:05.404Z,-1.36
2023-01-19T19:16:36.930Z,-1.37
2023-01-19T19:19:08.320Z,-1.36
2023-01-19T19:21:36.641Z,-1.35
2023-01-19T19:24:05.669Z,-1.34
2023-01-19T19:26:36.948Z,-1.32
2023-01-19T19:29:05.927Z,-1.30
2023-01-19T19:31:35.143Z,-1.29
2023-01-19T19:34:03.563Z,-1.28
2023-01-19T19:36:33.994Z,-1.30
2023-01-19T19:39:02.479Z,-1.34
2023-01-19T19:41:32.360Z,-1.35
2023-01-19T19:44:00.702Z,-1.35
2023-01-19T19:46:29.132Z,-1.36
2023-01-19T19:48:57.490Z,-1.35
2023-01-19T19:51:28.533Z,-1.32
2023-01-19T19:54:00.027Z,-1.30
2023-01-19T19:56:31.430Z,-1.28
2023-01-19T19:59:00.769Z,-1.24
2023-01-19T20:01:33.674Z,-1.21
2023-01-19T20:04:12.225Z,-1.17
2023-01-19T20:06:44.721Z,-1.13
2023-01-19T20:09:14.249Z,-1.10
2023-01-19T20:11:45.445Z,-1.06
2023-01-19T20:14:16.171Z,-1.02
2023-01-19T20:16:44.662Z,-0.99
2023-01-19T20:19:13.053Z,-0.96
2023-01-19T20:21:42.551Z,-0.92
2023-01-19T20:24:17.743Z,-0.89
2023-01-19T20:26:52.830Z,-0.88
2023-01-19T20:29:21.400Z,-0.86
2023-01-19T20:31:54.851Z,-0.85
2023-01-19T20:34:33.048Z,-0.84
2023-01-19T20:37:07.008Z,-0.82
2023-01-19T20:39:37.183Z,-0.80
2023-01-19T20:42:09.684Z,-0.78
2023-01-19T20:44:38.339Z,-0.80
2023-01-19T20:47:08.397Z,-0.81
2023-01-19T20:49:36.999Z,-0.84
2023-01-19T20:52:05.764Z,-0.87
2023-01-19T20:54:34.495Z,-0.89
2023-01-19T20:57:03.261Z,-0.89
2023-01-19T20:59:34.104Z,-0.89
2023-01-19T21:02:03.285Z,-0.88
2023-01-19T21:04:31.738Z,-0.88
2023-01-19T21:07:00.160Z,-0.88
2023-01-19T21:09:28.963Z,-0.88
2023-01-19T21:11:57.689Z,-0.91
2023-01-19T21:14:26.188Z,-0.94
2023-01-19T21:16:58.300Z,-0.96
2023-01-19T21:19:26.694Z,-0.96
2023-01-19T21:21:57.820Z,-0.95
2023-01-19T21:24:26.138Z,-0.94
2023-01-19T21:26:54.473Z,-0.93
2023-01-19T21:29:22.918Z,-0.92
2023-01-19T21:31:51.364Z,-0.90
2023-01-19T21:34:19.861Z,-0.87
2023-01-19T21:36:48.320Z,-0.87
2023-01-19T21:39:17.520Z,-0.84
2023-01-19T21:41:45.987Z,-0.82
2023-01-19T21:44:14.484Z,-0.80
2023-01-19T21:46:43.461Z,-0.79
2023-01-19T21:49:19.408Z,-0.78
2023-01-19T21:51:50.532Z,-0.79
2023-01-19T21:54:18.997Z,-0.78
2023-01-19T21:56:47.367Z,-0.78
2023-01-19T21:59:16.253Z,-0.79
2023-01-19T22:01:45.977Z,-0.79
2023-01-19T22:04:14.396Z,-0.78
2023-01-19T22:06:42.969Z,-0.78
2023-01-19T22:09:11.283Z,-0.78
2023-01-19T22:11:39.615Z,-0.78
2023-01-19T22:14:07.928Z,-0.77
2023-01-19T22:16:36.329Z,-0.78
2023-01-19T22:19:07.379Z,-0.78
2023-01-19T22:21:35.923Z,-0.77
2023-01-19T22:24:05.669Z,-0.78
2023-01-19T22:26:34.698Z,-0.77
2023-01-19T22:29:06.744Z,-0.76
2023-01-19T22:31:35.205Z,-0.74
2023-01-19T22:34:03.931Z,-0.72
2023-01-19T22:36:35.815Z,-0.72
2023-01-19T22:39:10.599Z,-0.71
2023-01-19T22:41:42.499Z,-0.70
2023-01-19T22:44:17.947Z,-0.69
2023-01-19T22:46:46.771Z,-0.67
2023-01-19T22:49:18.065Z,-0.68
2023-01-19T22:51:47.118Z,-0.68
2023-01-19T22:54:15.510Z,-0.68
2023-01-19T22:56:43.901Z,-0.68
2023-01-19T22:59:12.255Z,-0.67
2023-01-19T23:01:43.872Z,-0.67
2023-01-19T23:04:15.751Z,-0.66
2023-01-19T23:06:49.224Z,-0.63
2023-01-19T23:09:18.783Z,-0.62
2023-01-19T23:11:50.498Z,-0.61
2023-01-19T23:14:22.075Z,-0.60
2023-01-19T23:16:50.735Z,-0.59
2023-01-19T23:19:19.535Z,-0.58
2023-01-19T23:21:52.469Z,-0.56
2023-01-19T23:24:21.011Z,-0.55
2023-01-19T23:26:52.514Z,-0.53
2023-01-19T23:29:20.979Z,-0.50
2023-01-19T23:31:50.143Z,-0.48
2023-01-19T23:34:18.524Z,-0.46
2023-01-19T23:36:46.917Z,-0.45
2023-01-19T23:39:21.538Z,-0.43
2023-01-19T23:41:50.450Z,-0.43
2023-01-19T23:44:19.178Z,-0.46
2023-01-19T23:46:47.583Z,-0.49
2023-01-19T23:49:15.984Z,-0.53
2023-01-19T23:51:44.321Z,-0.57
2023-01-19T23:54:12.719Z,-0.59
2023-01-19T23:56:42.664Z,-0.61
2023-01-19T23:59:15.778Z,-0.62
